sensor_id;sensor_type;location;lat;lon;timestamp;P1;durP1;ratioP1;P2;durP2;ratioP2
12869;SDS011;6503;48.572;13.460;2023-08-07T00:02:08;2.42;;;1.25;;
12869;SDS011;6503;48.572;13.460;2023-08-07T00:04:35;2.58;;;1.40;;
12869;SDS011;6503;48.572;13.460;2023-08-07T00:07:03;2.03;;;1.05;;
12869;SDS011;6503;48.572;13.460;2023-08-07T00:09:32;2.58;;;1.20;;
12869;SDS011;6503;48.572;13.460;2023-08-07T00:11:59;2.65;;;1.60;;
12869;SDS011;6503;48.572;13.460;2023-08-07T00:14:29;2.45;;;1.10;;
12869;SDS011;6503;48.572;13.460;2023-08-07T00:16:56;1.60;;;1.27;;
12869;SDS011;6503;48.572;13.460;2023-08-07T00:19:23;4.90;;;1.38;;
12869;SDS011;6503;48.572;13.460;2023-08-07T00:21:50;2.83;;;1.48;;
12869;SDS011;6503;48.572;13.460;2023-08-07T00:24:17;2.92;;;1.40;;
12869;SDS011;6503;48.572;13.460;2023-08-07T00:26:45;3.17;;;1.40;;
12869;SDS011;6503;48.572;13.460;2023-08-07T00:29:12;3.28;;;1.60;;
12869;SDS011;6503;48.572;13.460;2023-08-07T00:31:41;2.35;;;1.35;;
12869;SDS011;6503;48.572;13.460;2023-08-07T00:34:08;1.75;;;1.35;;
12869;SDS011;6503;48.572;13.460;2023-08-07T00:36:36;4.07;;;1.33;;
12869;SDS011;6503;48.572;13.460;2023-08-07T00:39:03;2.35;;;1.52;;
12869;SDS011;6503;48.572;13.460;2023-08-07T00:41:30;2.05;;;1.27;;
12869;SDS011;6503;48.572;13.460;2023-08-07T00:43:57;3.78;;;1.60;;
12869;SDS011;6503;48.572;13.460;2023-08-07T00:46:25;3.72;;;1.50;;
12869;SDS011;6503;48.572;13.460;2023-08-07T00:48:54;3.95;;;1.60;;
12869;SDS011;6503;48.572;13.460;2023-08-07T00:51:21;3.60;;;1.50;;
12869;SDS011;6503;48.572;13.460;2023-08-07T00:53:52;1.95;;;1.23;;
12869;SDS011;6503;48.572;13.460;2023-08-07T00:56:19;3.42;;;1.50;;
12869;SDS011;6503;48.572;13.460;2023-08-07T00:58:47;4.07;;;1.63;;
12869;SDS011;6503;48.572;13.460;2023-08-07T01:01:15;2.58;;;1.30;;
12869;SDS011;6503;48.572;13.460;2023-08-07T01:03:42;2.83;;;1.40;;
12869;SDS011;6503;48.572;13.460;2023-08-07T01:06:11;2.38;;;1.58;;
12869;SDS011;6503;48.572;13.460;2023-08-07T01:08:38;2.15;;;1.45;;
12869;SDS011;6503;48.572;13.460;2023-08-07T01:11:07;3.70;;;1.50;;
12869;SDS011;6503;48.572;13.460;2023-08-07T01:13:37;2.83;;;1.40;;
12869;SDS011;6503;48.572;13.460;2023-08-07T01:16:08;2.85;;;1.30;;
12869;SDS011;6503;48.572;13.460;2023-08-07T01:18:37;2.08;;;1.50;;
12869;SDS011;6503;48.572;13.460;2023-08-07T01:21:05;4.05;;;1.55;;
12869;SDS011;6503;48.572;13.460;2023-08-07T01:23:34;2.35;;;1.27;;
12869;SDS011;6503;48.572;13.460;2023-08-07T01:26:01;2.10;;;1.50;;
12869;SDS011;6503;48.572;13.460;2023-08-07T01:28:30;0.93;;;0.77;;
12869;SDS011;6503;48.572;13.460;2023-08-07T01:31:01;9.18;;;0.75;;
12869;SDS011;6503;48.572;13.460;2023-08-07T01:33:31;1.50;;;0.40;;
12869;SDS011;6503;48.572;13.460;2023-08-07T01:36:00;0.10;;;0.10;;
12869;SDS011;6503;48.572;13.460;2023-08-07T01:38:28;0.13;;;0.13;;
12869;SDS011;6503;48.572;13.460;2023-08-07T01:40:57;0.20;;;0.20;;
12869;SDS011;6503;48.572;13.460;2023-08-07T01:43:25;0.10;;;0.10;;
12869;SDS011;6503;48.572;13.460;2023-08-07T01:45:52;0.10;;;0.10;;
12869;SDS011;6503;48.572;13.460;2023-08-07T01:48:19;0.10;;;0.10;;
12869;SDS011;6503;48.572;13.460;2023-08-07T01:50:49;0.10;;;0.10;;
12869;SDS011;6503;48.572;13.460;2023-08-07T01:53:16;0.47;;;0.40;;
12869;SDS011;6503;48.572;13.460;2023-08-07T01:55:43;1.13;;;1.10;;
12869;SDS011;6503;48.572;13.460;2023-08-07T01:58:12;0.30;;;0.30;;
12869;SDS011;6503;48.572;13.460;2023-08-07T02:00:39;0.30;;;0.30;;
12869;SDS011;6503;48.572;13.460;2023-08-07T02:03:07;0.10;;;0.10;;
12869;SDS011;6503;48.572;13.460;2023-08-07T02:05:34;0.10;;;0.10;;
12869;SDS011;6503;48.572;13.460;2023-08-07T02:08:01;0.10;;;0.10;;
12869;SDS011;6503;48.572;13.460;2023-08-07T02:10:29;0.10;;;0.10;;
12869;SDS011;6503;48.572;13.460;2023-08-07T02:12:57;0.30;;;0.30;;
12869;SDS011;6503;48.572;13.460;2023-08-07T02:15:25;0.10;;;0.10;;
12869;SDS011;6503;48.572;13.460;2023-08-07T02:17:53;0.10;;;0.10;;
12869;SDS011;6503;48.572;13.460;2023-08-07T02:20:20;0.25;;;0.25;;
12869;SDS011;6503;48.572;13.460;2023-08-07T02:22:47;0.20;;;0.20;;
12869;SDS011;6503;48.572;13.460;2023-08-07T02:25:15;0.10;;;0.10;;
12869;SDS011;6503;48.572;13.460;2023-08-07T02:27:42;0.10;;;0.10;;
12869;SDS011;6503;48.572;13.460;2023-08-07T02:30:09;0.10;;;0.10;;
12869;SDS011;6503;48.572;13.460;2023-08-07T02:32:38;0.10;;;0.10;;
12869;SDS011;6503;48.572;13.460;2023-08-07T02:35:09;0.10;;;0.10;;
12869;SDS011;6503;48.572;13.460;2023-08-07T02:37:36;0.10;;;0.10;;
12869;SDS011;6503;48.572;13.460;2023-08-07T02:40:04;0.10;;;0.10;;
12869;SDS011;6503;48.572;13.460;2023-08-07T02:42:33;0.40;;;0.40;;
12869;SDS011;6503;48.572;13.460;2023-08-07T02:45:00;0.10;;;0.10;;
12869;SDS011;6503;48.572;13.460;2023-08-07T02:47:27;0.10;;;0.10;;
12869;SDS011;6503;48.572;13.460;2023-08-07T02:49:56;0.10;;;0.10;;
12869;SDS011;6503;48.572;13.460;2023-08-07T02:52:24;0.13;;;0.13;;
12869;SDS011;6503;48.572;13.460;2023-08-07T02:54:51;0.10;;;0.10;;
12869;SDS011;6503;48.572;13.460;2023-08-07T02:57:19;0.40;;;0.40;;
12869;SDS011;6503;48.572;13.460;2023-08-07T02:59:46;0.15;;;0.15;;
12869;SDS011;6503;48.572;13.460;2023-08-07T03:02:13;0.10;;;0.10;;
12869;SDS011;6503;48.572;13.460;2023-08-07T03:04:41;0.13;;;0.13;;
12869;SDS011;6503;48.572;13.460;2023-08-07T03:07:11;0.10;;;0.10;;
12869;SDS011;6503;48.572;13.460;2023-08-07T03:09:38;0.10;;;0.10;;
12869;SDS011;6503;48.572;13.460;2023-08-07T03:12:06;0.10;;;0.10;;
12869;SDS011;6503;48.572;13.460;2023-08-07T03:14:32;0.10;;;0.10;;
12869;SDS011;6503;48.572;13.460;2023-08-07T03:17:00;0.10;;;0.10;;
12869;SDS011;6503;48.572;13.460;2023-08-07T03:19:27;0.20;;;0.20;;
12869;SDS011;6503;48.572;13.460;2023-08-07T03:21:54;0.10;;;0.10;;
12869;SDS011;6503;48.572;13.460;2023-08-07T03:24:23;0.10;;;0.10;;
12869;SDS011;6503;48.572;13.460;2023-08-07T03:26:50;0.10;;;0.10;;
12869;SDS011;6503;48.572;13.460;2023-08-07T03:29:19;0.10;;;0.10;;
12869;SDS011;6503;48.572;13.460;2023-08-07T03:31:48;0.10;;;0.10;;
12869;SDS011;6503;48.572;13.460;2023-08-07T03:34:15;0.10;;;0.10;;
12869;SDS011;6503;48.572;13.460;2023-08-07T03:36:43;0.30;;;0.30;;
12869;SDS011;6503;48.572;13.460;2023-08-07T03:39:10;0.10;;;0.10;;
12869;SDS011;6503;48.572;13.460;2023-08-07T03:41:39;0.10;;;0.10;;
12869;SDS011;6503;48.572;13.460;2023-08-07T03:44:06;0.25;;;0.25;;
12869;SDS011;6503;48.572;13.460;2023-08-07T03:46:34;0.10;;;0.10;;
12869;SDS011;6503;48.572;13.460;2023-08-07T03:49:01;0.10;;;0.10;;
12869;SDS011;6503;48.572;13.460;2023-08-07T03:51:28;0.10;;;0.10;;
12869;SDS011;6503;48.572;13.460;2023-08-07T03:53:57;0.10;;;0.10;;
12869;SDS011;6503;48.572;13.460;2023-08-07T03:56:24;0.20;;;0.20;;
12869;SDS011;6503;48.572;13.460;2023-08-07T03:58:53;0.40;;;0.40;;
12869;SDS011;6503;48.572;13.460;2023-08-07T04:01:20;0.10;;;0.10;;
12869;SDS011;6503;48.572;13.460;2023-08-07T04:03:48;0.10;;;0.10;;
12869;SDS011;6503;48.572;13.460;2023-08-07T04:06:15;0.20;;;0.20;;
12869;SDS011;6503;48.572;13.460;2023-08-07T04:08:44;0.10;;;0.10;;
12869;SDS011;6503;48.572;13.460;2023-08-07T04:11:11;0.10;;;0.10;;
12869;SDS011;6503;48.572;13.460;2023-08-07T04:13:39;0.10;;;0.10;;
12869;SDS011;6503;48.572;13.460;2023-08-07T04:16:08;0.20;;;0.20;;
12869;SDS011;6503;48.572;13.460;2023-08-07T04:18:35;0.10;;;0.10;;
12869;SDS011;6503;48.572;13.460;2023-08-07T04:21:03;0.10;;;0.10;;
12869;SDS011;6503;48.572;13.460;2023-08-07T04:23:30;0.10;;;0.10;;
12869;SDS011;6503;48.572;13.460;2023-08-07T04:25:58;0.10;;;0.10;;
12869;SDS011;6503;48.572;13.460;2023-08-07T04:28:27;0.20;;;0.20;;
12869;SDS011;6503;48.572;13.460;2023-08-07T04:30:54;0.10;;;0.10;;
12869;SDS011;6503;48.572;13.460;2023-08-07T04:33:23;0.10;;;0.10;;
12869;SDS011;6503;48.572;13.460;2023-08-07T04:35:51;0.10;;;0.10;;
12869;SDS011;6503;48.572;13.460;2023-08-07T04:38:19;0.17;;;0.17;;
12869;SDS011;6503;48.572;13.460;2023-08-07T04:40:48;0.10;;;0.10;;
12869;SDS011;6503;48.572;13.460;2023-08-07T04:43:16;0.20;;;0.20;;
12869;SDS011;6503;48.572;13.460;2023-08-07T04:45:44;0.10;;;0.10;;
12869;SDS011;6503;48.572;13.460;2023-08-07T04:48:12;0.13;;;0.13;;
12869;SDS011;6503;48.572;13.460;2023-08-07T04:50:42;0.17;;;0.17;;
12869;SDS011;6503;48.572;13.460;2023-08-07T04:53:12;0.17;;;0.17;;
12869;SDS011;6503;48.572;13.460;2023-08-07T04:55:39;0.10;;;0.10;;
12869;SDS011;6503;48.572;13.460;2023-08-07T04:58:06;0.10;;;0.10;;
12869;SDS011;6503;48.572;13.460;2023-08-07T05:00:34;0.50;;;0.50;;
12869;SDS011;6503;48.572;13.460;2023-08-07T05:03:01;0.10;;;0.10;;
12869;SDS011;6503;48.572;13.460;2023-08-07T05:05:29;0.10;;;0.10;;
12869;SDS011;6503;48.572;13.460;2023-08-07T05:07:58;0.20;;;0.20;;
12869;SDS011;6503;48.572;13.460;2023-08-07T05:10:25;0.10;;;0.10;;
12869;SDS011;6503;48.572;13.460;2023-08-07T05:12:53;0.10;;;0.10;;
12869;SDS011;6503;48.572;13.460;2023-08-07T05:15:21;0.10;;;0.10;;
12869;SDS011;6503;48.572;13.460;2023-08-07T05:17:49;0.20;;;0.20;;
12869;SDS011;6503;48.572;13.460;2023-08-07T05:20:16;0.10;;;0.10;;
12869;SDS011;6503;48.572;13.460;2023-08-07T05:22:44;0.10;;;0.10;;
12869;SDS011;6503;48.572;13.460;2023-08-07T05:25:23;0.10;;;0.10;;
12869;SDS011;6503;48.572;13.460;2023-08-07T05:27:50;0.10;;;0.10;;
12869;SDS011;6503;48.572;13.460;2023-08-07T05:30:20;0.10;;;0.10;;
12869;SDS011;6503;48.572;13.460;2023-08-07T05:32:49;0.10;;;0.10;;
12869;SDS011;6503;48.572;13.460;2023-08-07T05:35:19;0.57;;;0.57;;
12869;SDS011;6503;48.572;13.460;2023-08-07T05:37:49;0.10;;;0.10;;
12869;SDS011;6503;48.572;13.460;2023-08-07T05:40:17;0.20;;;0.20;;
12869;SDS011;6503;48.572;13.460;2023-08-07T05:42:46;0.10;;;0.10;;
12869;SDS011;6503;48.572;13.460;2023-08-07T05:45:13;0.43;;;0.43;;
12869;SDS011;6503;48.572;13.460;2023-08-07T05:47:41;0.10;;;0.10;;
12869;SDS011;6503;48.572;13.460;2023-08-07T05:50:08;0.10;;;0.10;;
12869;SDS011;6503;48.572;13.460;2023-08-07T05:52:37;0.10;;;0.10;;
12869;SDS011;6503;48.572;13.460;2023-08-07T05:55:05;0.20;;;0.20;;
12869;SDS011;6503;48.572;13.460;2023-08-07T05:57:33;0.10;;;0.10;;
12869;SDS011;6503;48.572;13.460;2023-08-07T06:00:08;0.10;;;0.10;;
12869;SDS011;6503;48.572;13.460;2023-08-07T06:02:39;0.10;;;0.10;;
12869;SDS011;6503;48.572;13.460;2023-08-07T06:05:08;0.10;;;0.10;;
12869;SDS011;6503;48.572;13.460;2023-08-07T06:07:38;0.20;;;0.20;;
12869;SDS011;6503;48.572;13.460;2023-08-07T06:10:05;0.30;;;0.30;;
12869;SDS011;6503;48.572;13.460;2023-08-07T06:12:33;1.38;;;1.38;;
12869;SDS011;6503;48.572;13.460;2023-08-07T06:15:02;1.02;;;1.02;;
12869;SDS011;6503;48.572;13.460;2023-08-07T06:17:32;0.10;;;0.10;;
12869;SDS011;6503;48.572;13.460;2023-08-07T06:19:59;0.10;;;0.10;;
12869;SDS011;6503;48.572;13.460;2023-08-07T06:22:29;0.13;;;0.13;;
12869;SDS011;6503;48.572;13.460;2023-08-07T06:24:57;0.25;;;0.25;;
12869;SDS011;6503;48.572;13.460;2023-08-07T06:27:25;0.10;;;0.10;;
12869;SDS011;6503;48.572;13.460;2023-08-07T06:29:53;0.10;;;0.10;;
12869;SDS011;6503;48.572;13.460;2023-08-07T06:32:20;0.10;;;0.10;;
12869;SDS011;6503;48.572;13.460;2023-08-07T06:34:51;0.10;;;0.10;;
12869;SDS011;6503;48.572;13.460;2023-08-07T06:37:19;0.10;;;0.10;;
12869;SDS011;6503;48.572;13.460;2023-08-07T06:39:46;0.10;;;0.10;;
12869;SDS011;6503;48.572;13.460;2023-08-07T06:42:13;0.30;;;0.30;;
12869;SDS011;6503;48.572;13.460;2023-08-07T06:44:41;0.10;;;0.10;;
12869;SDS011;6503;48.572;13.460;2023-08-07T06:47:08;0.10;;;0.10;;
12869;SDS011;6503;48.572;13.460;2023-08-07T06:49:36;0.40;;;0.40;;
12869;SDS011;6503;48.572;13.460;2023-08-07T06:52:08;0.10;;;0.10;;
12869;SDS011;6503;48.572;13.460;2023-08-07T06:54:35;0.10;;;0.10;;
12869;SDS011;6503;48.572;13.460;2023-08-07T06:57:03;0.30;;;0.30;;
12869;SDS011;6503;48.572;13.460;2023-08-07T06:59:30;0.10;;;0.10;;
12869;SDS011;6503;48.572;13.460;2023-08-07T07:01:58;0.30;;;0.30;;
12869;SDS011;6503;48.572;13.460;2023-08-07T07:04:25;0.10;;;0.10;;
12869;SDS011;6503;48.572;13.460;2023-08-07T07:06:53;0.10;;;0.10;;
12869;SDS011;6503;48.572;13.460;2023-08-07T07:09:23;0.10;;;0.10;;
12869;SDS011;6503;48.572;13.460;2023-08-07T07:11:53;0.10;;;0.10;;
12869;SDS011;6503;48.572;13.460;2023-08-07T07:14:21;0.20;;;0.20;;
12869;SDS011;6503;48.572;13.460;2023-08-07T07:16:48;0.10;;;0.10;;
12869;SDS011;6503;48.572;13.460;2023-08-07T07:19:15;3.40;;;1.73;;
12869;SDS011;6503;48.572;13.460;2023-08-07T07:21:43;0.25;;;0.25;;
12869;SDS011;6503;48.572;13.460;2023-08-07T07:24:10;0.55;;;0.55;;
12869;SDS011;6503;48.572;13.460;2023-08-07T07:26:40;0.10;;;0.10;;
12869;SDS011;6503;48.572;13.460;2023-08-07T07:29:07;0.20;;;0.20;;
12869;SDS011;6503;48.572;13.460;2023-08-07T07:31:37;0.10;;;0.10;;
12869;SDS011;6503;48.572;13.460;2023-08-07T07:34:04;0.10;;;0.10;;
12869;SDS011;6503;48.572;13.460;2023-08-07T07:36:31;0.10;;;0.10;;
12869;SDS011;6503;48.572;13.460;2023-08-07T07:38:59;0.10;;;0.10;;
12869;SDS011;6503;48.572;13.460;2023-08-07T07:41:26;0.10;;;0.10;;
12869;SDS011;6503;48.572;13.460;2023-08-07T07:43:55;1.40;;;1.30;;
12869;SDS011;6503;48.572;13.460;2023-08-07T07:46:22;0.10;;;0.10;;
12869;SDS011;6503;48.572;13.460;2023-08-07T07:48:50;0.43;;;0.43;;
12869;SDS011;6503;48.572;13.460;2023-08-07T07:51:17;0.10;;;0.10;;
12869;SDS011;6503;48.572;13.460;2023-08-07T07:53:44;0.10;;;0.10;;
12869;SDS011;6503;48.572;13.460;2023-08-07T07:56:12;0.10;;;0.10;;
12869;SDS011;6503;48.572;13.460;2023-08-07T07:58:39;0.10;;;0.10;;
12869;SDS011;6503;48.572;13.460;2023-08-07T08:01:07;0.10;;;0.10;;
12869;SDS011;6503;48.572;13.460;2023-08-07T08:03:35;0.10;;;0.10;;
12869;SDS011;6503;48.572;13.460;2023-08-07T08:06:02;0.52;;;0.52;;
12869;SDS011;6503;48.572;13.460;2023-08-07T08:08:29;0.30;;;0.30;;
12869;SDS011;6503;48.572;13.460;2023-08-07T08:10:57;0.20;;;0.20;;
12869;SDS011;6503;48.572;13.460;2023-08-07T08:16:14;0.10;;;0.10;;
12869;SDS011;6503;48.572;13.460;2023-08-07T08:18:42;0.10;;;0.10;;
12869;SDS011;6503;48.572;13.460;2023-08-07T08:21:11;3.60;;;0.73;;
12869;SDS011;6503;48.572;13.460;2023-08-07T08:26:07;0.10;;;0.10;;
12869;SDS011;6503;48.572;13.460;2023-08-07T08:28:34;0.10;;;0.10;;
12869;SDS011;6503;48.572;13.460;2023-08-07T08:31:02;0.10;;;0.10;;
12869;SDS011;6503;48.572;13.460;2023-08-07T08:33:31;0.15;;;0.15;;
12869;SDS011;6503;48.572;13.460;2023-08-07T08:35:58;0.10;;;0.10;;
12869;SDS011;6503;48.572;13.460;2023-08-07T08:38:25;0.10;;;0.10;;
12869;SDS011;6503;48.572;13.460;2023-08-07T08:40:57;0.10;;;0.10;;
12869;SDS011;6503;48.572;13.460;2023-08-07T08:43:34;0.10;;;0.10;;
12869;SDS011;6503;48.572;13.460;2023-08-07T08:46:03;0.43;;;0.43;;
12869;SDS011;6503;48.572;13.460;2023-08-07T08:48:35;0.30;;;0.20;;
12869;SDS011;6503;48.572;13.460;2023-08-07T08:51:03;0.10;;;0.10;;
12869;SDS011;6503;48.572;13.460;2023-08-07T08:53:31;0.55;;;0.45;;
12869;SDS011;6503;48.572;13.460;2023-08-07T08:56:02;0.10;;;0.10;;
12869;SDS011;6503;48.572;13.460;2023-08-07T08:58:32;3.72;;;0.75;;
12869;SDS011;6503;48.572;13.460;2023-08-07T09:00:59;0.10;;;0.10;;
12869;SDS011;6503;48.572;13.460;2023-08-07T09:03:27;0.40;;;0.40;;
12869;SDS011;6503;48.572;13.460;2023-08-07T09:05:57;0.10;;;0.10;;
12869;SDS011;6503;48.572;13.460;2023-08-07T09:10:52;0.10;;;0.10;;
12869;SDS011;6503;48.572;13.460;2023-08-07T09:13:20;0.10;;;0.10;;
12869;SDS011;6503;48.572;13.460;2023-08-07T09:15:48;0.20;;;0.20;;
12869;SDS011;6503;48.572;13.460;2023-08-07T09:18:17;0.10;;;0.10;;
12869;SDS011;6503;48.572;13.460;2023-08-07T09:20:45;0.10;;;0.10;;
12869;SDS011;6503;48.572;13.460;2023-08-07T09:23:20;0.20;;;0.20;;
12869;SDS011;6503;48.572;13.460;2023-08-07T09:25:47;0.10;;;0.10;;
12869;SDS011;6503;48.572;13.460;2023-08-07T09:28:25;0.43;;;0.43;;
12869;SDS011;6503;48.572;13.460;2023-08-07T09:30:55;0.10;;;0.10;;
12869;SDS011;6503;48.572;13.460;2023-08-07T09:33:24;0.20;;;0.20;;
12869;SDS011;6503;48.572;13.460;2023-08-07T09:35:53;0.10;;;0.10;;
12869;SDS011;6503;48.572;13.460;2023-08-07T09:38:29;0.10;;;0.10;;
12869;SDS011;6503;48.572;13.460;2023-08-07T09:40:57;0.10;;;0.10;;
12869;SDS011;6503;48.572;13.460;2023-08-07T09:43:30;0.10;;;0.10;;
12869;SDS011;6503;48.572;13.460;2023-08-07T09:46:02;0.10;;;0.10;;
12869;SDS011;6503;48.572;13.460;2023-08-07T09:48:39;0.30;;;0.30;;
12869;SDS011;6503;48.572;13.460;2023-08-07T09:51:07;1.35;;;0.70;;
12869;SDS011;6503;48.572;13.460;2023-08-07T09:53:38;0.30;;;0.30;;
12869;SDS011;6503;48.572;13.460;2023-08-07T09:56:05;0.10;;;0.10;;
12869;SDS011;6503;48.572;13.460;2023-08-07T09:58:33;0.28;;;0.28;;
12869;SDS011;6503;48.572;13.460;2023-08-07T10:01:00;0.10;;;0.10;;
12869;SDS011;6503;48.572;13.460;2023-08-07T10:03:32;0.10;;;0.10;;
12869;SDS011;6503;48.572;13.460;2023-08-07T10:06:01;0.10;;;0.10;;
12869;SDS011;6503;48.572;13.460;2023-08-07T10:08:29;0.17;;;0.17;;
12869;SDS011;6503;48.572;13.460;2023-08-07T10:10:58;0.20;;;0.20;;
12869;SDS011;6503;48.572;13.460;2023-08-07T10:13:26;0.17;;;0.17;;
12869;SDS011;6503;48.572;13.460;2023-08-07T10:15:54;0.10;;;0.10;;
12869;SDS011;6503;48.572;13.460;2023-08-07T10:18:21;0.10;;;0.10;;
12869;SDS011;6503;48.572;13.460;2023-08-07T10:20:49;0.10;;;0.10;;
12869;SDS011;6503;48.572;13.460;2023-08-07T10:23:17;0.10;;;0.10;;
12869;SDS011;6503;48.572;13.460;2023-08-07T10:25:45;0.50;;;0.45;;
12869;SDS011;6503;48.572;13.460;2023-08-07T10:28:16;0.10;;;0.10;;
12869;SDS011;6503;48.572;13.460;2023-08-07T10:30:44;0.15;;;0.15;;
12869;SDS011;6503;48.572;13.460;2023-08-07T10:33:21;0.25;;;0.25;;
12869;SDS011;6503;48.572;13.460;2023-08-07T10:35:51;0.20;;;0.20;;
12869;SDS011;6503;48.572;13.460;2023-08-07T10:38:19;0.17;;;0.17;;
12869;SDS011;6503;48.572;13.460;2023-08-07T10:40:58;0.10;;;0.10;;
12869;SDS011;6503;48.572;13.460;2023-08-07T10:46:19;0.20;;;0.20;;
12869;SDS011;6503;48.572;13.460;2023-08-07T10:48:47;1.10;;;0.82;;
12869;SDS011;6503;48.572;13.460;2023-08-07T10:51:17;0.40;;;0.40;;
12869;SDS011;6503;48.572;13.460;2023-08-07T10:53:47;0.20;;;0.20;;
12869;SDS011;6503;48.572;13.460;2023-08-07T10:56:32;0.28;;;0.28;;
12869;SDS011;6503;48.572;13.460;2023-08-07T10:59:03;0.17;;;0.17;;
12869;SDS011;6503;48.572;13.460;2023-08-07T11:04:31;0.20;;;0.20;;
12869;SDS011;6503;48.572;13.460;2023-08-07T11:07:00;0.10;;;0.10;;
12869;SDS011;6503;48.572;13.460;2023-08-07T11:09:45;0.10;;;0.10;;
12869;SDS011;6503;48.572;13.460;2023-08-07T11:12:18;0.10;;;0.10;;
12869;SDS011;6503;48.572;13.460;2023-08-07T11:14:47;0.25;;;0.20;;
12869;SDS011;6503;48.572;13.460;2023-08-07T11:17:18;0.20;;;0.20;;
12869;SDS011;6503;48.572;13.460;2023-08-07T11:19:49;0.10;;;0.10;;
12869;SDS011;6503;48.572;13.460;2023-08-07T11:22:16;0.55;;;0.55;;
12869;SDS011;6503;48.572;13.460;2023-08-07T11:24:53;0.20;;;0.20;;
12869;SDS011;6503;48.572;13.460;2023-08-07T11:27:25;0.17;;;0.17;;
12869;SDS011;6503;48.572;13.460;2023-08-07T11:29:56;0.35;;;0.35;;
12869;SDS011;6503;48.572;13.460;2023-08-07T11:32:26;0.10;;;0.10;;
12869;SDS011;6503;48.572;13.460;2023-08-07T11:34:55;0.65;;;0.65;;
12869;SDS011;6503;48.572;13.460;2023-08-07T11:37:23;0.38;;;0.38;;
12869;SDS011;6503;48.572;13.460;2023-08-07T11:39:53;0.28;;;0.28;;
12869;SDS011;6503;48.572;13.460;2023-08-07T11:42:35;0.10;;;0.10;;
12869;SDS011;6503;48.572;13.460;2023-08-07T11:45:12;0.38;;;0.38;;
12869;SDS011;6503;48.572;13.460;2023-08-07T11:47:41;0.10;;;0.10;;
12869;SDS011;6503;48.572;13.460;2023-08-07T11:50:11;0.10;;;0.10;;
12869;SDS011;6503;48.572;13.460;2023-08-07T11:52:44;0.22;;;0.22;;
12869;SDS011;6503;48.572;13.460;2023-08-07T11:55:15;0.15;;;0.15;;
12869;SDS011;6503;48.572;13.460;2023-08-07T11:57:56;0.75;;;0.75;;
12869;SDS011;6503;48.572;13.460;2023-08-07T12:00:24;0.98;;;0.98;;
12869;SDS011;6503;48.572;13.460;2023-08-07T12:03:28;0.10;;;0.10;;
12869;SDS011;6503;48.572;13.460;2023-08-07T12:06:09;0.22;;;0.22;;
12869;SDS011;6503;48.572;13.460;2023-08-07T12:08:39;0.30;;;0.30;;
12869;SDS011;6503;48.572;13.460;2023-08-07T12:11:07;0.10;;;0.10;;
12869;SDS011;6503;48.572;13.460;2023-08-07T12:13:36;0.10;;;0.10;;
12869;SDS011;6503;48.572;13.460;2023-08-07T12:16:08;2.05;;;0.63;;
12869;SDS011;6503;48.572;13.460;2023-08-07T12:18:37;0.20;;;0.20;;
12869;SDS011;6503;48.572;13.460;2023-08-07T12:21:07;0.52;;;0.52;;
12869;SDS011;6503;48.572;13.460;2023-08-07T12:23:35;0.30;;;0.30;;
12869;SDS011;6503;48.572;13.460;2023-08-07T12:26:04;0.20;;;0.20;;
12869;SDS011;6503;48.572;13.460;2023-08-07T12:28:32;0.20;;;0.20;;
12869;SDS011;6503;48.572;13.460;2023-08-07T12:31:03;0.10;;;0.10;;
12869;SDS011;6503;48.572;13.460;2023-08-07T12:33:32;0.20;;;0.20;;
12869;SDS011;6503;48.572;13.460;2023-08-07T12:36:00;1.10;;;1.10;;
12869;SDS011;6503;48.572;13.460;2023-08-07T12:38:32;2.35;;;1.02;;
12869;SDS011;6503;48.572;13.460;2023-08-07T12:41:01;2.53;;;1.30;;
12869;SDS011;6503;48.572;13.460;2023-08-07T12:43:46;3.33;;;1.48;;
12869;SDS011;6503;48.572;13.460;2023-08-07T12:46:13;2.88;;;1.67;;
12869;SDS011;6503;48.572;13.460;2023-08-07T12:48:41;1.80;;;1.20;;
12869;SDS011;6503;48.572;13.460;2023-08-07T12:51:16;2.83;;;1.58;;
12869;SDS011;6503;48.572;13.460;2023-08-07T12:53:45;2.22;;;1.80;;
12869;SDS011;6503;48.572;13.460;2023-08-07T12:56:16;4.43;;;1.75;;
12869;SDS011;6503;48.572;13.460;2023-08-07T12:58:43;3.83;;;1.70;;
12869;SDS011;6503;48.572;13.460;2023-08-07T13:01:16;2.45;;;1.40;;
12869;SDS011;6503;48.572;13.460;2023-08-07T13:03:49;3.35;;;1.42;;
12869;SDS011;6503;48.572;13.460;2023-08-07T13:06:19;5.35;;;1.77;;
12869;SDS011;6503;48.572;13.460;2023-08-07T13:16:36;8.07;;;2.38;;
12869;SDS011;6503;48.572;13.460;2023-08-07T13:35:39;2.92;;;1.90;;
12869;SDS011;6503;48.572;13.460;2023-08-07T13:38:33;3.83;;;1.85;;
12869;SDS011;6503;48.572;13.460;2023-08-07T13:41:10;5.65;;;1.90;;
12869;SDS011;6503;48.572;13.460;2023-08-07T13:43:40;3.95;;;1.65;;
12869;SDS011;6503;48.572;13.460;2023-08-07T13:46:15;3.88;;;1.75;;
12869;SDS011;6503;48.572;13.460;2023-08-07T13:48:47;6.38;;;1.98;;
12869;SDS011;6503;48.572;13.460;2023-08-07T13:51:23;5.72;;;2.00;;
12869;SDS011;6503;48.572;13.460;2023-08-07T13:54:32;3.05;;;1.52;;
12869;SDS011;6503;48.572;13.460;2023-08-07T13:57:17;2.97;;;1.50;;
12869;SDS011;6503;48.572;13.460;2023-08-07T13:59:59;3.63;;;2.05;;
12869;SDS011;6503;48.572;13.460;2023-08-07T14:02:34;4.28;;;1.92;;
12869;SDS011;6503;48.572;13.460;2023-08-07T14:05:18;4.00;;;1.90;;
12869;SDS011;6503;48.572;13.460;2023-08-07T14:07:51;3.00;;;1.52;;
12869;SDS011;6503;48.572;13.460;2023-08-07T14:10:28;3.95;;;1.85;;
12869;SDS011;6503;48.572;13.460;2023-08-07T14:12:56;3.95;;;2.20;;
12869;SDS011;6503;48.572;13.460;2023-08-07T14:15:33;3.28;;;1.88;;
12869;SDS011;6503;48.572;13.460;2023-08-07T14:18:22;3.88;;;1.95;;
12869;SDS011;6503;48.572;13.460;2023-08-07T14:20:53;4.80;;;2.00;;
12869;SDS011;6503;48.572;13.460;2023-08-07T14:23:26;4.45;;;2.20;;
12869;SDS011;6503;48.572;13.460;2023-08-07T14:26:39;5.07;;;2.13;;
12869;SDS011;6503;48.572;13.460;2023-08-07T14:29:07;2.95;;;1.88;;
12869;SDS011;6503;48.572;13.460;2023-08-07T14:31:41;3.50;;;1.73;;
12869;SDS011;6503;48.572;13.460;2023-08-07T14:34:21;3.10;;;1.60;;
12869;SDS011;6503;48.572;13.460;2023-08-07T14:36:52;3.00;;;1.70;;
12869;SDS011;6503;48.572;13.460;2023-08-07T14:39:21;5.05;;;1.92;;
12869;SDS011;6503;48.572;13.460;2023-08-07T14:41:53;4.70;;;1.98;;
12869;SDS011;6503;48.572;13.460;2023-08-07T14:44:23;3.65;;;2.40;;
12869;SDS011;6503;48.572;13.460;2023-08-07T14:46:59;3.33;;;1.70;;
12869;SDS011;6503;48.572;13.460;2023-08-07T14:53:50;4.43;;;1.92;;
12869;SDS011;6503;48.572;13.460;2023-08-07T14:55:22;5.78;;;1.88;;
12869;SDS011;6503;48.572;13.460;2023-08-07T14:57:49;3.30;;;1.50;;
12869;SDS011;6503;48.572;13.460;2023-08-07T15:00:17;2.70;;;1.60;;
12869;SDS011;6503;48.572;13.460;2023-08-07T15:02:45;3.05;;;1.58;;
12869;SDS011;6503;48.572;13.460;2023-08-07T15:05:13;5.00;;;1.60;;
12869;SDS011;6503;48.572;13.460;2023-08-07T15:07:45;3.75;;;1.60;;
12869;SDS011;6503;48.572;13.460;2023-08-07T15:12:57;2.95;;;1.67;;
12869;SDS011;6503;48.572;13.460;2023-08-07T15:15:31;2.33;;;1.42;;
12869;SDS011;6503;48.572;13.460;2023-08-07T15:18:15;2.95;;;1.38;;
12869;SDS011;6503;48.572;13.460;2023-08-07T15:20:43;2.35;;;1.13;;
12869;SDS011;6503;48.572;13.460;2023-08-07T15:23:10;1.83;;;1.17;;
12869;SDS011;6503;48.572;13.460;2023-08-07T15:25:38;2.30;;;1.30;;
12869;SDS011;6503;48.572;13.460;2023-08-07T15:28:06;2.50;;;1.40;;
12869;SDS011;6503;48.572;13.460;2023-08-07T15:30:41;2.90;;;1.40;;
12869;SDS011;6503;48.572;13.460;2023-08-07T15:33:22;2.03;;;1.23;;
12869;SDS011;6503;48.572;13.460;2023-08-07T15:35:54;2.50;;;1.20;;
12869;SDS011;6503;48.572;13.460;2023-08-07T15:38:23;3.83;;;1.40;;
12869;SDS011;6503;48.572;13.460;2023-08-07T15:40:50;1.75;;;1.25;;
12869;SDS011;6503;48.572;13.460;2023-08-07T15:43:21;3.92;;;1.58;;
12869;SDS011;6503;48.572;13.460;2023-08-07T15:45:52;3.10;;;1.80;;
12869;SDS011;6503;48.572;13.460;2023-08-07T15:48:19;3.13;;;1.40;;